sensor_id;sensor_type;location;lat;lon;timestamp;temperature;humidity
11925;DHT22;6022;48.768;18.608;2023-04-06T00:01:44;0.70;99.90
11925;DHT22;6022;48.768;18.608;2023-04-06T00:04:11;1.50;99.90
11925;DHT22;6022;48.768;18.608;2023-04-06T00:06:38;0.60;99.90
11925;DHT22;6022;48.768;18.608;2023-04-06T00:09:06;0.60;99.90
11925;DHT22;6022;48.768;18.608;2023-04-06T00:11:34;0.40;99.90
11925;DHT22;6022;48.768;18.608;2023-04-06T00:14:01;0.50;99.90
11925;DHT22;6022;48.768;18.608;2023-04-06T00:16:28;0.70;99.90
11925;DHT22;6022;48.768;18.608;2023-04-06T00:18:56;0.60;99.90
11925;DHT22;6022;48.768;18.608;2023-04-06T00:21:23;0.40;99.90
11925;DHT22;6022;48.768;18.608;2023-04-06T00:23:52;0.40;99.90
11925;DHT22;6022;48.768;18.608;2023-04-06T00:26:24;0.50;99.90
11925;DHT22;6022;48.768;18.608;2023-04-06T00:28:51;0.10;99.90
11925;DHT22;6022;48.768;18.608;2023-04-06T00:31:19;0.00;99.90
11925;DHT22;6022;48.768;18.608;2023-04-06T00:33:48;0.00;99.90
11925;DHT22;6022;48.768;18.608;2023-04-06T00:36:15;0.20;99.90
11925;DHT22;6022;48.768;18.608;2023-04-06T00:38:42;-0.30;99.90
11925;DHT22;6022;48.768;18.608;2023-04-06T00:41:10;0.00;99.90
11925;DHT22;6022;48.768;18.608;2023-04-06T00:43:37;0.00;99.90
11925;DHT22;6022;48.768;18.608;2023-04-06T00:46:04;-0.10;99.90
11925;DHT22;6022;48.768;18.608;2023-04-06T00:48:32;-0.30;99.90
11925;DHT22;6022;48.768;18.608;2023-04-06T00:51:01;0.30;99.90
11925;DHT22;6022;48.768;18.608;2023-04-06T00:53:28;-0.30;99.90
11925;DHT22;6022;48.768;18.608;2023-04-06T00:55:55;-0.20;99.90
11925;DHT22;6022;48.768;18.608;2023-04-06T00:58:23;-0.20;99.90
11925;DHT22;6022;48.768;18.608;2023-04-06T01:00:51;-0.10;99.90
11925;DHT22;6022;48.768;18.608;2023-04-06T01:03:19;-0.20;99.90
11925;DHT22;6022;48.768;18.608;2023-04-06T01:05:46;0.00;99.90
11925;DHT22;6022;48.768;18.608;2023-04-06T01:08:14;-0.60;99.90
11925;DHT22;6022;48.768;18.608;2023-04-06T01:10:41;-0.90;99.90
11925;DHT22;6022;48.768;18.608;2023-04-06T01:13:08;-0.40;99.90
11925;DHT22;6022;48.768;18.608;2023-04-06T01:15:36;-0.10;99.90
11925;DHT22;6022;48.768;18.608;2023-04-06T01:18:08;-0.40;99.90
11925;DHT22;6022;48.768;18.608;2023-04-06T01:20:37;-0.30;99.90
11925;DHT22;6022;48.768;18.608;2023-04-06T01:23:04;-0.60;99.90
11925;DHT22;6022;48.768;18.608;2023-04-06T01:25:31;-0.60;99.90
11925;DHT22;6022;48.768;18.608;2023-04-06T01:27:59;-0.90;99.90
11925;DHT22;6022;48.768;18.608;2023-04-06T01:30:26;-0.60;99.90
11925;DHT22;6022;48.768;18.608;2023-04-06T01:32:53;-1.10;99.90
11925;DHT22;6022;48.768;18.608;2023-04-06T01:35:22;-1.00;99.90
11925;DHT22;6022;48.768;18.608;2023-04-06T01:37:49;-0.80;99.90
11925;DHT22;6022;48.768;18.608;2023-04-06T01:40:17;-0.90;99.90
11925;DHT22;6022;48.768;18.608;2023-04-06T01:42:47;-0.90;99.90
11925;DHT22;6022;48.768;18.608;2023-04-06T01:45:17;-1.50;99.90
11925;DHT22;6022;48.768;18.608;2023-04-06T01:47:44;-1.00;99.90
11925;DHT22;6022;48.768;18.608;2023-04-06T01:50:12;-1.40;99.90
11925;DHT22;6022;48.768;18.608;2023-04-06T01:52:39;-0.90;99.90
11925;DHT22;6022;48.768;18.608;2023-04-06T01:55:08;-0.80;99.90
11925;DHT22;6022;48.768;18.608;2023-04-06T01:57:35;-0.50;99.90
11925;DHT22;6022;48.768;18.608;2023-04-06T02:00:03;-0.80;99.90
11925;DHT22;6022;48.768;18.608;2023-04-06T02:02:31;-1.10;99.90
11925;DHT22;6022;48.768;18.608;2023-04-06T02:04:58;-1.30;99.90
11925;DHT22;6022;48.768;18.608;2023-04-06T02:07:27;-1.20;99.90
11925;DHT22;6022;48.768;18.608;2023-04-06T02:09:55;-0.60;99.90
11925;DHT22;6022;48.768;18.608;2023-04-06T02:12:23;-0.60;99.90
11925;DHT22;6022;48.768;18.608;2023-04-06T02:14:50;-0.60;99.90
11925;DHT22;6022;48.768;18.608;2023-04-06T02:17:18;-0.70;99.90
11925;DHT22;6022;48.768;18.608;2023-04-06T02:19:45;-0.80;99.90
11925;DHT22;6022;48.768;18.608;2023-04-06T02:22:13;-1.00;99.90
11925;DHT22;6022;48.768;18.608;2023-04-06T02:24:40;-1.30;99.90
11925;DHT22;6022;48.768;18.608;2023-04-06T02:27:07;-1.00;99.90
11925;DHT22;6022;48.768;18.608;2023-04-06T02:29:35;-0.90;99.90
11925;DHT22;6022;48.768;18.608;2023-04-06T02:32:02;-1.30;99.90
11925;DHT22;6022;48.768;18.608;2023-04-06T02:34:29;-1.30;99.90
11925;DHT22;6022;48.768;18.608;2023-04-06T02:37:07;-1.30;99.90
11925;DHT22;6022;48.768;18.608;2023-04-06T02:39:34;0.30;99.90
11925;DHT22;6022;48.768;18.608;2023-04-06T02:42:02;-1.30;99.90
11925;DHT22;6022;48.768;18.608;2023-04-06T02:44:29;0.10;99.90
11925;DHT22;6022;48.768;18.608;2023-04-06T02:46:57;-1.10;99.90
11925;DHT22;6022;48.768;18.608;2023-04-06T02:49:24;-1.00;99.90
11925;DHT22;6022;48.768;18.608;2023-04-06T02:51:51;-1.40;99.90
11925;DHT22;6022;48.768;18.608;2023-04-06T02:54:19;-1.50;99.90
11925;DHT22;6022;48.768;18.608;2023-04-06T02:56:46;-1.50;99.90
11925;DHT22;6022;48.768;18.608;2023-04-06T02:59:13;-0.40;99.90
11925;DHT22;6022;48.768;18.608;2023-04-06T03:01:40;-1.80;99.90
11925;DHT22;6022;48.768;18.608;2023-04-06T03:04:09;-1.80;99.90
11925;DHT22;6022;48.768;18.608;2023-04-06T03:06:40;-1.30;99.90
11925;DHT22;6022;48.768;18.608;2023-04-06T03:09:08;-1.20;99.90
11925;DHT22;6022;48.768;18.608;2023-04-06T03:11:35;-1.50;99.90
11925;DHT22;6022;48.768;18.608;2023-04-06T03:14:03;-1.90;99.90
11925;DHT22;6022;48.768;18.608;2023-04-06T03:16:30;-1.90;99.90
11925;DHT22;6022;48.768;18.608;2023-04-06T03:18:57;-1.50;99.90
11925;DHT22;6022;48.768;18.608;2023-04-06T03:21:24;-1.20;99.90
11925;DHT22;6022;48.768;18.608;2023-04-06T03:23:52;-1.60;99.90
11925;DHT22;6022;48.768;18.608;2023-04-06T03:26:19;-1.40;99.90
11925;DHT22;6022;48.768;18.608;2023-04-06T03:28:46;-0.60;99.90
11925;DHT22;6022;48.768;18.608;2023-04-06T03:31:16;-1.60;99.90
11925;DHT22;6022;48.768;18.608;2023-04-06T03:33:44;-1.80;99.90
11925;DHT22;6022;48.768;18.608;2023-04-06T03:36:12;-1.90;99.90
11925;DHT22;6022;48.768;18.608;2023-04-06T03:38:39;-1.60;99.90
11925;DHT22;6022;48.768;18.608;2023-04-06T03:41:07;-1.70;99.90
11925;DHT22;6022;48.768;18.608;2023-04-06T03:43:34;-1.60;99.90
11925;DHT22;6022;48.768;18.608;2023-04-06T03:46:01;-1.90;99.90
11925;DHT22;6022;48.768;18.608;2023-04-06T03:48:29;-1.00;99.90
11925;DHT22;6022;48.768;18.608;2023-04-06T03:50:57;-1.70;99.90
11925;DHT22;6022;48.768;18.608;2023-04-06T03:53:24;-2.10;99.90
11925;DHT22;6022;48.768;18.608;2023-04-06T03:55:51;-2.30;99.90
11925;DHT22;6022;48.768;18.608;2023-04-06T03:58:19;-2.20;99.90
11925;DHT22;6022;48.768;18.608;2023-04-06T04:00:46;-1.70;99.90
11925;DHT22;6022;48.768;18.608;2023-04-06T04:03:13;-2.10;99.90
11925;DHT22;6022;48.768;18.608;2023-04-06T04:05:46;-2.10;99.90
11925;DHT22;6022;48.768;18.608;2023-04-06T04:08:13;-2.10;99.90
11925;DHT22;6022;48.768;18.608;2023-04-06T04:10:40;-2.30;99.90
11925;DHT22;6022;48.768;18.608;2023-04-06T04:13:08;-2.30;99.90
11925;DHT22;6022;48.768;18.608;2023-04-06T04:15:35;-1.00;99.90
11925;DHT22;6022;48.768;18.608;2023-04-06T04:18:02;-1.80;99.90
11925;DHT22;6022;48.768;18.608;2023-04-06T04:20:29;-2.20;99.90
11925;DHT22;6022;48.768;18.608;2023-04-06T04:22:57;-2.10;99.90
11925;DHT22;6022;48.768;18.608;2023-04-06T04:25:24;-2.00;99.90
11925;DHT22;6022;48.768;18.608;2023-04-06T04:27:51;-2.20;99.90
11925;DHT22;6022;48.768;18.608;2023-04-06T04:30:19;-2.30;99.90
11925;DHT22;6022;48.768;18.608;2023-04-06T04:32:46;-2.20;99.90
11925;DHT22;6022;48.768;18.608;2023-04-06T04:35:14;-2.20;99.90
11925;DHT22;6022;48.768;18.608;2023-04-06T04:37:41;-0.70;99.90
11925;DHT22;6022;48.768;18.608;2023-04-06T04:40:09;-1.90;99.90
11925;DHT22;6022;48.768;18.608;2023-04-06T04:42:36;-1.90;99.90
11925;DHT22;6022;48.768;18.608;2023-04-06T04:45:04;-1.90;99.90
11925;DHT22;6022;48.768;18.608;2023-04-06T04:47:31;-2.10;99.90
11925;DHT22;6022;48.768;18.608;2023-04-06T04:49:59;-1.70;99.90
11925;DHT22;6022;48.768;18.608;2023-04-06T04:52:26;-1.70;99.90
11925;DHT22;6022;48.768;18.608;2023-04-06T04:54:53;-1.80;99.90
11925;DHT22;6022;48.768;18.608;2023-04-06T04:57:21;-1.90;99.90
11925;DHT22;6022;48.768;18.608;2023-04-06T04:59:48;-1.60;99.90
11925;DHT22;6022;48.768;18.608;2023-04-06T05:02:17;-1.10;99.90
11925;DHT22;6022;48.768;18.608;2023-04-06T05:04:44;-1.10;99.90
11925;DHT22;6022;48.768;18.608;2023-04-06T05:07:12;-1.10;99.90
11925;DHT22;6022;48.768;18.608;2023-04-06T05:09:42;-1.10;99.90
11925;DHT22;6022;48.768;18.608;2023-04-06T05:12:09;-0.50;99.90
11925;DHT22;6022;48.768;18.608;2023-04-06T05:14:36;-0.50;99.90
11925;DHT22;6022;48.768;18.608;2023-04-06T05:17:04;0.00;99.90
11925;DHT22;6022;48.768;18.608;2023-04-06T05:19:31;0.10;99.90
11925;DHT22;6022;48.768;18.608;2023-04-06T05:21:59;0.40;99.90
11925;DHT22;6022;48.768;18.608;2023-04-06T05:24:26;0.40;99.90
11925;DHT22;6022;48.768;18.608;2023-04-06T05:26:54;0.70;99.90
11925;DHT22;6022;48.768;18.608;2023-04-06T05:29:21;1.20;99.90
11925;DHT22;6022;48.768;18.608;2023-04-06T05:31:48;1.40;99.90
11925;DHT22;6022;48.768;18.608;2023-04-06T05:34:18;1.50;99.90
11925;DHT22;6022;48.768;18.608;2023-04-06T05:36:46;2.10;99.90
11925;DHT22;6022;48.768;18.608;2023-04-06T05:39:13;2.10;99.90
11925;DHT22;6022;48.768;18.608;2023-04-06T05:41:40;2.40;99.90
11925;DHT22;6022;48.768;18.608;2023-04-06T05:44:07;2.50;99.90
11925;DHT22;6022;48.768;18.608;2023-04-06T05:46:34;2.80;99.90
11925;DHT22;6022;48.768;18.608;2023-04-06T05:49:02;3.40;99.90
11925;DHT22;6022;48.768;18.608;2023-04-06T05:51:32;3.80;99.90
11925;DHT22;6022;48.768;18.608;2023-04-06T05:53:59;3.70;99.90
11925;DHT22;6022;48.768;18.608;2023-04-06T05:56:27;3.80;99.90
11925;DHT22;6022;48.768;18.608;2023-04-06T05:58:54;4.00;99.90
11925;DHT22;6022;48.768;18.608;2023-04-06T06:01:21;4.30;99.90
11925;DHT22;6022;48.768;18.608;2023-04-06T06:03:49;4.60;99.90
11925;DHT22;6022;48.768;18.608;2023-04-06T06:06:16;4.80;99.90
11925;DHT22;6022;48.768;18.608;2023-04-06T06:08:43;5.10;99.90
11925;DHT22;6022;48.768;18.608;2023-04-06T06:11:11;5.50;99.90
11925;DHT22;6022;48.768;18.608;2023-04-06T06:13:38;5.50;99.90
11925;DHT22;6022;48.768;18.608;2023-04-06T06:16:05;5.70;98.70
11925;DHT22;6022;48.768;18.608;2023-04-06T06:18:33;5.80;97.70
11925;DHT22;6022;48.768;18.608;2023-04-06T06:21:01;5.60;99.10
11925;DHT22;6022;48.768;18.608;2023-04-06T06:23:28;5.10;99.20
11925;DHT22;6022;48.768;18.608;2023-04-06T06:26:09;5.10;98.10
11925;DHT22;6022;48.768;18.608;2023-04-06T06:28:37;5.50;98.20
11925;DHT22;6022;48.768;18.608;2023-04-06T06:31:07;5.40;98.10
11925;DHT22;6022;48.768;18.608;2023-04-06T06:33:34;5.60;97.80
11925;DHT22;6022;48.768;18.608;2023-04-06T06:36:05;5.90;98.20
11925;DHT22;6022;48.768;18.608;2023-04-06T06:38:33;5.80;95.30
11925;DHT22;6022;48.768;18.608;2023-04-06T06:41:00;6.00;96.00
11925;DHT22;6022;48.768;18.608;2023-04-06T06:43:28;6.10;95.70
11925;DHT22;6022;48.768;18.608;2023-04-06T06:45:55;5.80;94.50
11925;DHT22;6022;48.768;18.608;2023-04-06T06:48:23;6.10;95.20
11925;DHT22;6022;48.768;18.608;2023-04-06T06:50:50;6.00;93.50
11925;DHT22;6022;48.768;18.608;2023-04-06T06:53:18;6.50;93.70
11925;DHT22;6022;48.768;18.608;2023-04-06T06:55:46;6.50;92.90
11925;DHT22;6022;48.768;18.608;2023-04-06T06:58:17;6.60;93.20
11925;DHT22;6022;48.768;18.608;2023-04-06T07:00:48;6.40;93.60
11925;DHT22;6022;48.768;18.608;2023-04-06T07:03:15;6.40;92.40
11925;DHT22;6022;48.768;18.608;2023-04-06T07:05:46;6.60;92.60
11925;DHT22;6022;48.768;18.608;2023-04-06T07:08:24;6.50;92.20
11925;DHT22;6022;48.768;18.608;2023-04-06T07:10:53;6.70;91.90
11925;DHT22;6022;48.768;18.608;2023-04-06T07:13:27;7.10;92.50
11925;DHT22;6022;48.768;18.608;2023-04-06T07:15:55;7.20;90.40
11925;DHT22;6022;48.768;18.608;2023-04-06T07:18:25;7.50;89.60
11925;DHT22;6022;48.768;18.608;2023-04-06T07:20:54;7.10;89.70
11925;DHT22;6022;48.768;18.608;2023-04-06T07:23:24;7.40;88.40
11925;DHT22;6022;48.768;18.608;2023-04-06T07:25:52;7.40;85.70
11925;DHT22;6022;48.768;18.608;2023-04-06T07:28:20;7.10;86.30
11925;DHT22;6022;48.768;18.608;2023-04-06T07:30:50;7.20;87.80
11925;DHT22;6022;48.768;18.608;2023-04-06T07:33:23;6.70;89.40
11925;DHT22;6022;48.768;18.608;2023-04-06T07:35:50;6.50;88.10
11925;DHT22;6022;48.768;18.608;2023-04-06T07:38:25;7.20;87.20
11925;DHT22;6022;48.768;18.608;2023-04-06T07:40:53;7.80;84.80
11925;DHT22;6022;48.768;18.608;2023-04-06T07:43:20;7.60;83.70
11925;DHT22;6022;48.768;18.608;2023-04-06T07:45:50;7.80;82.90
11925;DHT22;6022;48.768;18.608;2023-04-06T07:48:21;8.20;81.90
11925;DHT22;6022;48.768;18.608;2023-04-06T07:50:50;8.40;79.50
11925;DHT22;6022;48.768;18.608;2023-04-06T07:53:21;8.20;78.70
11925;DHT22;6022;48.768;18.608;2023-04-06T07:55:56;8.60;78.80
11925;DHT22;6022;48.768;18.608;2023-04-06T07:58:47;8.90;75.80
11925;DHT22;6022;48.768;18.608;2023-04-06T08:01:25;9.50;74.30
11925;DHT22;6022;48.768;18.608;2023-04-06T08:04:10;9.10;69.90
11925;DHT22;6022;48.768;18.608;2023-04-06T08:06:42;9.20;68.90
11925;DHT22;6022;48.768;18.608;2023-04-06T08:09:11;8.70;70.00
11925;DHT22;6022;48.768;18.608;2023-04-06T08:11:41;8.70;69.30
11925;DHT22;6022;48.768;18.608;2023-04-06T08:14:38;8.20;69.50
11925;DHT22;6022;48.768;18.608;2023-04-06T08:17:22;7.90;70.50
11925;DHT22;6022;48.768;18.608;2023-04-06T08:20:12;7.40;72.10
11925;DHT22;6022;48.768;18.608;2023-04-06T08:22:58;7.50;72.80
11925;DHT22;6022;48.768;18.608;2023-04-06T08:25:29;7.20;73.00
11925;DHT22;6022;48.768;18.608;2023-04-06T08:27:57;7.10;73.20
11925;DHT22;6022;48.768;18.608;2023-04-06T08:30:57;7.60;73.50
11925;DHT22;6022;48.768;18.608;2023-04-06T08:34:05;7.20;76.40
11925;DHT22;6022;48.768;18.608;2023-04-06T08:36:38;7.70;76.40
11925;DHT22;6022;48.768;18.608;2023-04-06T08:39:08;7.50;72.70
11925;DHT22;6022;48.768;18.608;2023-04-06T08:41:36;7.60;72.80
11925;DHT22;6022;48.768;18.608;2023-04-06T08:44:14;6.30;70.90
11925;DHT22;6022;48.768;18.608;2023-04-06T08:46:41;8.20;72.50
11925;DHT22;6022;48.768;18.608;2023-04-06T08:49:10;8.50;73.70
11925;DHT22;6022;48.768;18.608;2023-04-06T08:51:37;8.90;73.10
11925;DHT22;6022;48.768;18.608;2023-04-06T08:54:06;8.80;71.80
11925;DHT22;6022;48.768;18.608;2023-04-06T08:56:40;9.50;69.80
11925;DHT22;6022;48.768;18.608;2023-04-06T08:59:09;9.70;69.60
11925;DHT22;6022;48.768;18.608;2023-04-06T09:01:39;9.40;69.70
11925;DHT22;6022;48.768;18.608;2023-04-06T09:04:13;9.00;69.90
11925;DHT22;6022;48.768;18.608;2023-04-06T09:07:18;9.20;71.00
11925;DHT22;6022;48.768;18.608;2023-04-06T09:09:56;9.00;69.40
11925;DHT22;6022;48.768;18.608;2023-04-06T09:13:04;8.60;70.60
11925;DHT22;6022;48.768;18.608;2023-04-06T09:16:19;8.20;71.10
11925;DHT22;6022;48.768;18.608;2023-04-06T09:19:14;8.30;71.80
11925;DHT22;6022;48.768;18.608;2023-04-06T09:22:34;8.60;71.70
11925;DHT22;6022;48.768;18.608;2023-04-06T09:25:28;8.60;72.00
11925;DHT22;6022;48.768;18.608;2023-04-06T09:28:27;8.40;69.40
11925;DHT22;6022;48.768;18.608;2023-04-06T09:30:57;8.90;70.50
11925;DHT22;6022;48.768;18.608;2023-04-06T09:33:32;8.50;68.90
11925;DHT22;6022;48.768;18.608;2023-04-06T09:36:01;9.00;70.40
11925;DHT22;6022;48.768;18.608;2023-04-06T09:38:29;8.80;69.40
11925;DHT22;6022;48.768;18.608;2023-04-06T09:41:00;9.20;70.00
11925;DHT22;6022;48.768;18.608;2023-04-06T09:43:30;7.10;68.80
11925;DHT22;6022;48.768;18.608;2023-04-06T09:45:58;8.90;68.60
11925;DHT22;6022;48.768;18.608;2023-04-06T09:48:31;8.70;69.30
11925;DHT22;6022;48.768;18.608;2023-04-06T09:51:03;8.90;67.00
11925;DHT22;6022;48.768;18.608;2023-04-06T09:53:37;8.50;68.00
11925;DHT22;6022;48.768;18.608;2023-04-06T09:56:12;8.50;69.00
11925;DHT22;6022;48.768;18.608;2023-04-06T09:58:45;8.90;73.70
11925;DHT22;6022;48.768;18.608;2023-04-06T10:01:20;9.70;69.30
11925;DHT22;6022;48.768;18.608;2023-04-06T10:04:07;9.40;67.60
11925;DHT22;6022;48.768;18.608;2023-04-06T10:06:48;9.00;69.10
11925;DHT22;6022;48.768;18.608;2023-04-06T10:09:24;9.10;69.20
11925;DHT22;6022;48.768;18.608;2023-04-06T10:11:58;9.70;67.00
11925;DHT22;6022;48.768;18.608;2023-04-06T10:14:26;9.70;67.00
11925;DHT22;6022;48.768;18.608;2023-04-06T10:16:54;9.50;66.70
11925;DHT22;6022;48.768;18.608;2023-04-06T10:19:28;9.10;65.80
11925;DHT22;6022;48.768;18.608;2023-04-06T10:22:00;9.80;68.10
11925;DHT22;6022;48.768;18.608;2023-04-06T10:24:31;9.80;64.70
11925;DHT22;6022;48.768;18.608;2023-04-06T10:27:03;9.70;66.20
11925;DHT22;6022;48.768;18.608;2023-04-06T10:29:45;10.50;65.40
11925;DHT22;6022;48.768;18.608;2023-04-06T10:32:15;10.80;63.50
11925;DHT22;6022;48.768;18.608;2023-04-06T10:34:45;10.70;64.60
11925;DHT22;6022;48.768;18.608;2023-04-06T10:37:16;10.90;61.30
11925;DHT22;6022;48.768;18.608;2023-04-06T10:39:52;10.00;61.90
11925;DHT22;6022;48.768;18.608;2023-04-06T10:42:35;10.50;66.20
11925;DHT22;6022;48.768;18.608;2023-04-06T10:45:18;10.70;64.10
11925;DHT22;6022;48.768;18.608;2023-04-06T10:47:47;10.50;63.60
11925;DHT22;6022;48.768;18.608;2023-04-06T10:50:16;10.20;61.20
11925;DHT22;6022;48.768;18.608;2023-04-06T10:52:47;10.00;62.10
11925;DHT22;6022;48.768;18.608;2023-04-06T10:55:27;9.80;61.60
11925;DHT22;6022;48.768;18.608;2023-04-06T10:57:56;10.20;63.60
11925;DHT22;6022;48.768;18.608;2023-04-06T11:00:23;10.80;62.30
11925;DHT22;6022;48.768;18.608;2023-04-06T11:03:04;10.70;59.80
11925;DHT22;6022;48.768;18.608;2023-04-06T11:05:32;10.50;60.00
11925;DHT22;6022;48.768;18.608;2023-04-06T11:07:59;10.10;59.60
11925;DHT22;6022;48.768;18.608;2023-04-06T11:10:31;9.90;61.10
11925;DHT22;6022;48.768;18.608;2023-04-06T11:12:59;9.70;61.60
11925;DHT22;6022;48.768;18.608;2023-04-06T11:15:26;9.50;60.60
11925;DHT22;6022;48.768;18.608;2023-04-06T11:18:06;10.10;62.60
11925;DHT22;6022;48.768;18.608;2023-04-06T11:20:34;10.10;62.40
11925;DHT22;6022;48.768;18.608;2023-04-06T11:23:02;10.40;62.20
11925;DHT22;6022;48.768;18.608;2023-04-06T11:25:50;10.80;61.40
11925;DHT22;6022;48.768;18.608;2023-04-06T11:28:21;10.90;61.70
11925;DHT22;6022;48.768;18.608;2023-04-06T11:30:51;10.90;62.30
11925;DHT22;6022;48.768;18.608;2023-04-06T11:33:21;10.80;60.10
11925;DHT22;6022;48.768;18.608;2023-04-06T11:35:49;10.70;61.40
11925;DHT22;6022;48.768;18.608;2023-04-06T11:38:18;10.90;60.10
11925;DHT22;6022;48.768;18.608;2023-04-06T11:40:53;10.80;60.80
11925;DHT22;6022;48.768;18.608;2023-04-06T11:43:30;10.20;61.20
11925;DHT22;6022;48.768;18.608;2023-04-06T11:46:02;10.00;60.50
11925;DHT22;6022;48.768;18.608;2023-04-06T11:48:31;10.10;61.80
11925;DHT22;6022;48.768;18.608;2023-04-06T11:51:02;10.10;63.20
11925;DHT22;6022;48.768;18.608;2023-04-06T11:53:44;9.90;61.90
11925;DHT22;6022;48.768;18.608;2023-04-06T11:56:30;9.90;62.50
11925;DHT22;6022;48.768;18.608;2023-04-06T11:58:58;9.90;63.50
11925;DHT22;6022;48.768;18.608;2023-04-06T12:01:31;9.90;64.00
11925;DHT22;6022;48.768;18.608;2023-04-06T12:04:10;9.40;64.00
11925;DHT22;6022;48.768;18.608;2023-04-06T12:07:02;9.00;66.30
11925;DHT22;6022;48.768;18.608;2023-04-06T12:09:35;8.40;65.60
11925;DHT22;6022;48.768;18.608;2023-04-06T12:12:03;8.80;67.30
11925;DHT22;6022;48.768;18.608;2023-04-06T12:14:45;8.40;66.60
11925;DHT22;6022;48.768;18.608;2023-04-06T12:17:26;8.80;67.70
11925;DHT22;6022;48.768;18.608;2023-04-06T12:19:53;8.10;67.70
11925;DHT22;6022;48.768;18.608;2023-04-06T12:22:32;8.60;68.90
11925;DHT22;6022;48.768;18.608;2023-04-06T12:25:31;8.40;68.90
11925;DHT22;6022;48.768;18.608;2023-04-06T12:28:04;8.20;70.20
11925;DHT22;6022;48.768;18.608;2023-04-06T12:30:37;8.10;68.80
11925;DHT22;6022;48.768;18.608;2023-04-06T12:33:05;8.40;69.90
11925;DHT22;6022;48.768;18.608;2023-04-06T12:38:27;8.00;71.70
11925;DHT22;6022;48.768;18.608;2023-04-06T12:41:31;7.50;76.00
11925;DHT22;6022;48.768;18.608;2023-04-06T12:44:25;7.20;76.30
11925;DHT22;6022;48.768;18.608;2023-04-06T12:47:35;7.10;78.60
11925;DHT22;6022;48.768;18.608;2023-04-06T12:50:17;8.10;82.30
11925;DHT22;6022;48.768;18.608;2023-04-06T12:53:02;7.30;82.60
11925;DHT22;6022;48.768;18.608;2023-04-06T12:55:42;6.80;89.60
11925;DHT22;6022;48.768;18.608;2023-04-06T12:58:12;6.50;91.70
11925;DHT22;6022;48.768;18.608;2023-04-06T13:00:51;6.40;93.70
11925;DHT22;6022;48.768;18.608;2023-04-06T13:03:46;6.40;94.30
11925;DHT22;6022;48.768;18.608;2023-04-06T13:06:16;6.50;95.90
11925;DHT22;6022;48.768;18.608;2023-04-06T13:08:46;6.50;97.60
11925;DHT22;6022;48.768;18.608;2023-04-06T13:11:25;6.10;98.50
11925;DHT22;6022;48.768;18.608;2023-04-06T13:13:54;6.20;99.90
11925;DHT22;6022;48.768;18.608;2023-04-06T13:16:31;6.30;99.90
11925;DHT22;6022;48.768;18.608;2023-04-06T13:19:01;6.40;99.90
11925;DHT22;6022;48.768;18.608;2023-04-06T13:21:30;6.00;99.90
11925;DHT22;6022;48.768;18.608;2023-04-06T13:24:03;5.90;99.90
11925;DHT22;6022;48.768;18.608;2023-04-06T13:26:31;6.50;99.90
11925;DHT22;6022;48.768;18.608;2023-04-06T13:28:59;6.30;99.90
11925;DHT22;6022;48.768;18.608;2023-04-06T13:31:28;6.10;99.90
11925;DHT22;6022;48.768;18.608;2023-04-06T13:33:58;5.80;99.90
11925;DHT22;6022;48.768;18.608;2023-04-06T13:36:26;6.00;99.90
11925;DHT22;6022;48.768;18.608;2023-04-06T13:38:53;5.80;99.90
11925;DHT22;6022;48.768;18.608;2023-04-06T13:41:34;5.70;99.90
11925;DHT22;6022;48.768;18.608;2023-04-06T13:44:19;5.60;99.90
11925;DHT22;6022;48.768;18.608;2023-04-06T13:47:03;5.20;99.90
11925;DHT22;6022;48.768;18.608;2023-04-06T13:49:34;5.30;99.90
11925;DHT22;6022;48.768;18.608;2023-04-06T13:52:04;5.60;99.90
11925;DHT22;6022;48.768;18.608;2023-04-06T13:54:42;5.70;99.90
11925;DHT22;6022;48.768;18.608;2023-04-06T13:57:10;5.50;99.90
11925;DHT22;6022;48.768;18.608;2023-04-06T14:00:06;5.20;99.90
11925;DHT22;6022;48.768;18.608;2023-04-06T14:02:49;5.40;99.90
11925;DHT22;6022;48.768;18.608;2023-04-06T14:05:34;5.30;99.90
11925;DHT22;6022;48.768;18.608;2023-04-06T14:08:04;4.90;99.90
11925;DHT22;6022;48.768;18.608;2023-04-06T14:10:44;4.80;99.90
11925;DHT22;6022;48.768;18.608;2023-04-06T14:13:19;5.00;99.90
11925;DHT22;6022;48.768;18.608;2023-04-06T14:15:53;4.90;99.90
11925;DHT22;6022;48.768;18.608;2023-04-06T14:18:24;4.50;99.90
11925;DHT22;6022;48.768;18.608;2023-04-06T14:21:16;4.80;99.90
11925;DHT22;6022;48.768;18.608;2023-04-06T14:23:49;5.00;99.90
11925;DHT22;6022;48.768;18.608;2023-04-06T14:26:16;5.00;99.90
11925;DHT22;6022;48.768;18.608;2023-04-06T14:28:45;3.70;99.90
11925;DHT22;6022;48.768;18.608;2023-04-06T14:31:14;4.90;99.90
11925;DHT22;6022;48.768;18.608;2023-04-06T14:33:43;4.50;99.90
11925;DHT22;6022;48.768;18.608;2023-04-06T14:36:12;4.40;99.90
11925;DHT22;6022;48.768;18.608;2023-04-06T14:38:43;4.70;99.90
11925;DHT22;6022;48.768;18.608;2023-04-06T14:41:17;4.60;99.90
11925;DHT22;6022;48.768;18.608;2023-04-06T14:43:49;4.50;99.90
11925;DHT22;6022;48.768;18.608;2023-04-06T14:46:19;4.50;99.90
11925;DHT22;6022;48.768;18.608;2023-04-06T14:48:48;4.60;99.90
11925;DHT22;6022;48.768;18.608;2023-04-06T14:51:18;4.70;99.90
11925;DHT22;6022;48.768;18.608;2023-04-06T14:53:45;4.40;99.90
11925;DHT22;6022;48.768;18.608;2023-04-06T14:56:19;4.50;99.90
11925;DHT22;6022;48.768;18.608;2023-04-06T14:58:51;4.30;99.90
11925;DHT22;6022;48.768;18.608;2023-04-06T15:01:21;4.30;99.90
11925;DHT22;6022;48.768;18.608;2023-04-06T15:03:49;4.40;99.90
11925;DHT22;6022;48.768;18.608;2023-04-06T15:06:21;4.30;99.90
11925;DHT22;6022;48.768;18.608;2023-04-06T15:08:49;4.30;99.90
11925;DHT22;6022;48.768;18.608;2023-04-06T15:11:16;4.20;99.90
11925;DHT22;6022;48.768;18.608;2023-04-06T15:13:48;4.40;99.90
11925;DHT22;6022;48.768;18.608;2023-04-06T15:16:30;4.20;99.90
11925;DHT22;6022;48.768;18.608;2023-04-06T15:19:05;4.10;99.90
11925;DHT22;6022;48.768;18.608;2023-04-06T15:21:43;4.10;99.90
11925;DHT22;6022;48.768;18.608;2023-04-06T15:24:16;4.10;99.90
11925;DHT22;6022;48.768;18.608;2023-04-06T15:26:49;4.00;99.90
11925;DHT22;6022;48.768;18.608;2023-04-06T15:29:31;4.00;99.90
11925;DHT22;6022;48.768;18.608;2023-04-06T15:32:03;3.90;99.90
11925;DHT22;6022;48.768;18.608;2023-04-06T15:34:45;4.00;99.90
11925;DHT22;6022;48.768;18.608;2023-04-06T15:37:17;4.20;99.90
11925;DHT22;6022;48.768;18.608;2023-04-06T15:39:47;4.00;99.90
11925;DHT22;6022;48.768;18.608;2023-04-06T15:42:14;4.00;99.90
11925;DHT22;6022;48.768;18.608;2023-04-06T15:44:41;4.30;99.90
11925;DHT22;6022;48.768;18.608;2023-04-06T15:47:09;4.10;99.90
11925;DHT22;6022;48.768;18.608;2023-04-06T15:49:36;4.40;99.90
11925;DHT22;6022;48.768;18.608;2023-04-06T15:52:04;4.10;99.90
11925;DHT22;6022;48.768;18.608;2023-04-06T15:54:34;4.00;99.90
11925;DHT22;6022;48.768;18.608;2023-04-06T15:57:06;4.00;99.90
11925;DHT22;6022;48.768;18.608;2023-04-06T15:59:47;4.10;99.90
11925;DHT22;6022;48.768;18.608;2023-04-06T16:02:16;4.00;99.90
11925;DHT22;6022;48.768;18.608;2023-04-06T16:04:59;4.10;99.90
11925;DHT22;6022;48.768;18.608;2023-04-06T16:07:37;4.30;99.90
11925;DHT22;6022;48.768;18.608;2023-04-06T16:10:05;4.10;99.90
11925;DHT22;6022;48.768;18.608;2023-04-06T16:12:43;4.10;99.90